createdAt,value
2023-05-25T00:00:20.916Z,94562.78
2023-05-25T00:02:47.831Z,94559.81
2023-05-25T00:05:14.906Z,94564.03
2023-05-25T00:07:41.624Z,94574.63
2023-05-25T00:10:08.989Z,94568.94
2023-05-25T00:12:36.942Z,94567.34
2023-05-25T00:15:05.473Z,94559.63
2023-05-25T00:17:32.485Z,94568.44
2023-05-25T00:20:08.183Z,94571.44
2023-05-25T00:22:38.280Z,94576.16
2023-05-25T00:25:06.444Z,94571.75
2023-05-25T00:27:33.132Z,94567.34
2023-05-25T00:29:59.943Z,94560.75
2023-05-25T00:32:27.340Z,94566.41
2023-05-25T00:34:54.715Z,94550.50
2023-05-25T00:37:21.878Z,94561.19
2023-05-25T00:39:48.584Z,94560.09
2023-05-25T00:42:15.902Z,94555.84
2023-05-25T00:44:42.786Z,94554.75
2023-05-25T00:47:11.690Z,94551.44
2023-05-25T00:49:38.612Z,94558.38
2023-05-25T00:52:05.891Z,94556.00
2023-05-25T00:54:33.693Z,94562.16
2023-05-25T00:57:06.504Z,94556.78
2023-05-25T00:59:41.478Z,94562.78
2023-05-25T01:02:11.356Z,94561.53
2023-05-25T01:04:45.374Z,94564.69
2023-05-25T01:07:17.758Z,94558.22
2023-05-25T01:09:45.072Z,94559.50
2023-05-25T01:12:16.310Z,94555.72
2023-05-25T01:14:43.700Z,94559.50
2023-05-25T01:17:11.225Z,94551.78
2023-05-25T01:19:41.010Z,94546.25
2023-05-25T01:22:38.474Z,94555.25
2023-05-25T01:25:14.918Z,94549.09
2023-05-25T01:27:48.811Z,94550.34
2023-05-25T01:30:19.512Z,94550.66
2023-05-25T01:32:46.667Z,94549.25
2023-05-25T01:35:14.937Z,94562.81
2023-05-25T01:37:49.347Z,94539.66
2023-05-25T01:40:16.304Z,94547.22
2023-05-25T01:42:43.009Z,94549.91
2023-05-25T01:45:11.860Z,94540.75
2023-05-25T01:47:59.693Z,94540.72
2023-05-25T01:50:29.563Z,94555.25
2023-05-25T01:53:02.372Z,94551.63
2023-05-25T01:55:32.723Z,94553.34
2023-05-25T01:58:01.002Z,94557.75
2023-05-25T02:00:31.838Z,94559.63
2023-05-25T02:02:59.733Z,94555.53
2023-05-25T02:05:27.955Z,94554.44
2023-05-25T02:07:54.748Z,94535.38
2023-05-25T02:10:21.602Z,94552.06
2023-05-25T02:12:49.544Z,94554.75
2023-05-25T02:15:16.669Z,94554.13
2023-05-25T02:17:43.530Z,94546.72
2023-05-25T02:20:11.752Z,94546.09
2023-05-25T02:22:38.522Z,94540.44
2023-05-25T02:25:09.070Z,94550.34
2023-05-25T02:27:36.396Z,94532.72
2023-05-25T02:30:03.321Z,94543.72
2023-05-25T02:32:31.461Z,94539.00
2023-05-25T02:34:58.305Z,94549.56
2023-05-25T02:37:24.989Z,94545.78
2023-05-25T02:39:51.997Z,94535.72
2023-05-25T02:42:19.709Z,94521.53
2023-05-25T02:44:48.726Z,94526.88
2023-05-25T02:47:16.483Z,94536.66
2023-05-25T02:49:43.323Z,94528.47
2023-05-25T02:52:10.378Z,94536.50
2023-05-25T02:54:37.252Z,94528.78
2023-05-25T02:57:05.964Z,94543.91
2023-05-25T02:59:32.850Z,94541.06
2023-05-25T03:01:59.851Z,94543.44
2023-05-25T03:04:26.662Z,94548.00
2023-05-25T03:06:54.011Z,94542.31
2023-05-25T03:09:21.594Z,94547.34
2023-05-25T03:11:50.132Z,94546.56
2023-05-25T03:14:19.591Z,94555.22
2023-05-25T03:16:54.306Z,94555.22
2023-05-25T03:19:22.870Z,94555.06
2023-05-25T03:21:49.621Z,94549.25
2023-05-25T03:24:19.163Z,94554.13
2023-05-25T03:26:46.140Z,94549.41
2023-05-25T03:29:13.694Z,94557.25
2023-05-25T03:31:40.800Z,94555.22
2023-05-25T03:34:08.017Z,94554.41
2023-05-25T03:36:39.071Z,94556.44
2023-05-25T03:39:07.195Z,94560.81
2023-05-25T03:41:34.086Z,94558.13
2023-05-25T03:44:00.853Z,94559.88
2023-05-25T03:46:27.795Z,94561.91
2023-05-25T03:48:57.248Z,94556.56
2023-05-25T03:51:24.013Z,94553.22
2023-05-25T03:53:50.770Z,94560.31
2023-05-25T03:56:17.445Z,94558.75
2023-05-25T03:58:44.159Z,94557.19
2023-05-25T04:01:13.326Z,94561.59
2023-05-25T04:03:40.166Z,94562.69
2023-05-25T04:06:07.117Z,94563.31
2023-05-25T04:08:34.140Z,94561.66
2023-05-25T04:11:01.179Z,94553.31
2023-05-25T04:13:28.326Z,94571.13
2023-05-25T04:15:55.887Z,94567.84
2023-05-25T04:18:26.890Z,94566.47
2023-05-25T04:20:55.511Z,94568.69
2023-05-25T04:23:23.246Z,94578.63
2023-05-25T04:25:53.688Z,94573.91
2023-05-25T04:28:20.621Z,94575.81
2023-05-25T04:30:57.002Z,94566.88
2023-05-25T04:33:53.082Z,94575.22
2023-05-25T04:36:32.700Z,94581.03
2023-05-25T04:39:04.522Z,94571.91
2023-05-25T04:41:34.000Z,94587.84
2023-05-25T04:44:09.774Z,94584.22
2023-05-25T04:46:49.370Z,94586.09
2023-05-25T04:49:26.701Z,94583.13
2023-05-25T04:51:53.573Z,94579.16
2023-05-25T04:54:20.362Z,94578.69
2023-05-25T04:56:47.151Z,94581.53
2023-05-25T04:59:14.413Z,94580.09
2023-05-25T05:01:42.247Z,94585.94
2023-05-25T05:04:12.203Z,94590.63
2023-05-25T05:06:39.564Z,94592.66
2023-05-25T05:09:07.386Z,94583.53
2023-05-25T05:11:34.059Z,94582.25
2023-05-25T05:14:00.868Z,94588.72
2023-05-25T05:16:33.768Z,94579.25
2023-05-25T05:19:01.711Z,94568.16
2023-05-25T05:21:29.601Z,94578.88
2023-05-25T05:23:56.885Z,94575.88
2023-05-25T05:26:23.604Z,94579.97
2023-05-25T05:28:52.615Z,94575.06
2023-05-25T05:31:20.052Z,94575.84
2023-05-25T05:33:47.307Z,94576.31
2023-05-25T05:36:15.652Z,94581.50
2023-05-25T05:38:42.637Z,94581.34
2023-05-25T05:41:13.956Z,94585.28
2023-05-25T05:43:43.320Z,94597.22
2023-05-25T05:46:13.569Z,94593.41
2023-05-25T05:48:41.507Z,94594.22
2023-05-25T05:51:08.320Z,94597.50
2023-05-25T05:53:35.601Z,94601.56
2023-05-25T05:56:03.874Z,94609.75
2023-05-25T05:58:32.594Z,94606.09
2023-05-25T06:01:01.541Z,94609.97
2023-05-25T06:03:28.895Z,94609.34
2023-05-25T06:05:55.905Z,94614.34
2023-05-25T06:08:22.853Z,94613.69
2023-05-25T06:10:50.128Z,94606.91
2023-05-25T06:13:16.835Z,94618.66
2023-05-25T06:15:43.734Z,94610.63
2023-05-25T06:18:16.266Z,94625.25
2023-05-25T06:20:43.109Z,94628.41
2023-05-25T06:23:12.450Z,94631.34
2023-05-25T06:25:39.109Z,94619.94
2023-05-25T06:28:06.139Z,94635.03
2023-05-25T06:30:32.831Z,94635.94
2023-05-25T06:33:01.295Z,94623.41
2023-05-25T06:35:29.429Z,94640.06
2023-05-25T06:37:57.242Z,94639.50
2023-05-25T06:40:23.994Z,94645.09
2023-05-25T06:42:50.791Z,94645.28
2023-05-25T06:45:36.234Z,94640.59
2023-05-25T06:48:03.082Z,94640.94
2023-05-25T06:50:31.316Z,94646.91
2023-05-25T06:53:00.352Z,94656.97
2023-05-25T06:55:27.264Z,94653.84
2023-05-25T06:57:53.997Z,94652.50
2023-05-25T07:00:21.557Z,94659.00
2023-05-25T07:02:48.329Z,94659.25
2023-05-25T07:05:15.333Z,94647.47
2023-05-25T07:07:42.053Z,94649.88
2023-05-25T07:10:09.317Z,94654.94
2023-05-25T07:12:35.994Z,94658.56
2023-05-25T07:15:02.779Z,94653.22
2023-05-25T07:17:29.449Z,94660.28
2023-05-25T07:19:56.239Z,94655.66
2023-05-25T07:22:23.768Z,94658.78
2023-05-25T07:24:50.461Z,94659.13
2023-05-25T07:27:17.594Z,94661.31
2023-05-25T07:29:44.335Z,94675.09
2023-05-25T07:32:11.216Z,94669.25
2023-05-25T07:34:37.919Z,94685.72
2023-05-25T07:37:04.807Z,94673.28
2023-05-25T07:39:31.502Z,94675.16
2023-05-25T07:41:58.182Z,94683.50
2023-05-25T07:44:24.840Z,94683.66
2023-05-25T07:46:51.604Z,94683.75
2023-05-25T07:49:18.353Z,94691.06
2023-05-25T07:51:45.830Z,94698.16
2023-05-25T07:54:12.625Z,94689.94
2023-05-25T07:56:39.600Z,94708.56
2023-05-25T07:59:06.546Z,94702.38
2023-05-25T08:01:33.330Z,94698.97
2023-05-25T08:04:00.409Z,94697.69
2023-05-25T08:06:27.477Z,94689.00
2023-05-25T08:08:54.221Z,94690.41
2023-05-25T08:11:25.130Z,94693.66
2023-05-25T08:13:52.124Z,94697.94
2023-05-25T08:16:19.221Z,94703.91
2023-05-25T08:18:47.044Z,94697.00
2023-05-25T08:21:14.687Z,94704.69
2023-05-25T08:23:42.720Z,94706.16
2023-05-25T08:26:29.076Z,94704.63
2023-05-25T08:28:58.099Z,94700.34
2023-05-25T08:31:24.866Z,94707.72
2023-05-25T08:33:51.579Z,94709.63
2023-05-25T08:36:18.235Z,94710.78
2023-05-25T08:38:44.989Z,94712.66
2023-05-25T08:41:13.268Z,94708.13
2023-05-25T08:43:42.150Z,94713.13
2023-05-25T08:46:09.735Z,94707.00
2023-05-25T08:48:41.532Z,94710.56
2023-05-25T08:51:11.755Z,94711.53
2023-05-25T08:53:40.859Z,94722.81
2023-05-25T08:56:14.235Z,94712.22
2023-05-25T08:58:46.629Z,94706.44
2023-05-25T09:01:18.356Z,94718.59
2023-05-25T09:03:49.826Z,94710.94
2023-05-25T09:06:17.523Z,94723.44
2023-05-25T09:08:46.089Z,94711.28
2023-05-25T09:11:17.058Z,94715.47
2023-05-25T09:13:44.642Z,94712.63
2023-05-25T09:16:11.656Z,94714.53
2023-05-25T09:18:38.805Z,94725.56
2023-05-25T09:21:05.666Z,94719.41
2023-05-25T09:23:32.505Z,94720.75
2023-05-25T09:26:01.196Z,94723.56
2023-05-25T09:28:28.011Z,94722.75
2023-05-25T09:30:55.296Z,94726.09
2023-05-25T09:33:22.396Z,94729.88
2023-05-25T09:35:49.371Z,94734.88
2023-05-25T09:38:16.882Z,94734.03
2023-05-25T09:40:44.916Z,94728.19
2023-05-25T09:43:17.313Z,94738.47
2023-05-25T09:45:49.171Z,94734.13
2023-05-25T09:48:16.284Z,94746.56
2023-05-25T09:50:43.327Z,94745.69
2023-05-25T09:53:11.300Z,94746.56
2023-05-25T09:55:51.994Z,94756.63
2023-05-25T09:58:19.642Z,94745.53
2023-05-25T10:00:46.762Z,94757.91
2023-05-25T10:03:15.482Z,94748.91
2023-05-25T10:05:42.316Z,94745.63
2023-05-25T10:08:10.567Z,94748.31
2023-05-25T10:10:39.109Z,94746.25
2023-05-25T10:13:09.491Z,94749.00
2023-05-25T10:15:40.139Z,94753.09
2023-05-25T10:18:09.904Z,94751.16
2023-05-25T10:20:38.106Z,94760.56
2023-05-25T10:23:10.769Z,94761.78
2023-05-25T10:25:44.716Z,94760.28
2023-05-25T10:28:20.252Z,94765.47
2023-05-25T10:30:47.922Z,94756.00
2023-05-25T10:33:15.124Z,94756.84
2023-05-25T10:36:01.557Z,94763.25
2023-05-25T10:38:31.702Z,94761.97
2023-05-25T10:40:59.909Z,94765.56
2023-05-25T10:43:27.819Z,94758.22
2023-05-25T10:45:56.904Z,94759.66
2023-05-25T10:48:35.255Z,94769.28
2023-05-25T10:51:01.931Z,94768.69
2023-05-25T10:53:28.758Z,94752.78
2023-05-25T10:55:58.357Z,94758.75
2023-05-25T10:58:28.302Z,94758.84
2023-05-25T11:01:12.732Z,94759.03
2023-05-25T11:03:53.554Z,94753.28
2023-05-25T11:06:40.498Z,94757.59
2023-05-25T11:09:07.804Z,94764.88
2023-05-25T11:11:43.750Z,94761.94
2023-05-25T11:14:27.978Z,94756.28
2023-05-25T11:17:14.839Z,94764.75
2023-05-25T11:19:43.892Z,94762.72
2023-05-25T11:22:23.004Z,94763.28
2023-05-25T11:24:51.649Z,94755.94
2023-05-25T11:27:26.988Z,94759.75
2023-05-25T11:29:54.802Z,94761.72
2023-05-25T11:32:22.726Z,94761.75
2023-05-25T11:34:53.024Z,94758.41
2023-05-25T11:37:21.459Z,94751.94
2023-05-25T11:39:49.361Z,94753.03
2023-05-25T11:42:17.746Z,94747.81
2023-05-25T11:44:44.734Z,94743.59
2023-05-25T11:47:18.669Z,94743.75
2023-05-25T11:49:47.363Z,94730.13
2023-05-25T11:52:15.601Z,94735.03
2023-05-25T11:54:42.875Z,94736.22
2023-05-25T11:57:26.226Z,94739.63
2023-05-25T12:00:00.376Z,94739.81
2023-05-25T12:02:27.271Z,94757.03
2023-05-25T12:04:56.211Z,94742.91
2023-05-25T12:07:23.751Z,94748.28
2023-05-25T12:09:50.537Z,94734.03
2023-05-25T12:12:17.457Z,94743.38
2023-05-25T12:14:50.575Z,94741.25
2023-05-25T12:17:18.983Z,94735.06
2023-05-25T12:19:46.686Z,94735.03
2023-05-25T12:22:14.184Z,94744.69
2023-05-25T12:24:41.394Z,94741.22
2023-05-25T12:27:22.721Z,94742.75
2023-05-25T12:29:49.904Z,94738.78
2023-05-25T12:32:16.939Z,94731.72
2023-05-25T12:34:43.714Z,94746.97
2023-05-25T12:37:21.859Z,94741.81
2023-05-25T12:39:48.787Z,94744.00
2023-05-25T12:42:17.011Z,94743.03
2023-05-25T12:44:46.698Z,94735.22
2023-05-25T12:47:20.341Z,94739.91
2023-05-25T12:49:48.895Z,94740.78
2023-05-25T12:52:35.261Z,94740.47
2023-05-25T12:55:21.762Z,94747.50
2023-05-25T12:57:52.736Z,94752.50
2023-05-25T13:00:24.372Z,94752.81
2023-05-25T13:02:51.992Z,94752.09
2023-05-25T13:05:23.575Z,94750.31
2023-05-25T13:07:51.482Z,94733.06
2023-05-25T13:10:18.581Z,94729.97
2023-05-25T13:12:47.555Z,94734.88
2023-05-25T13:15:21.018Z,94737.34
2023-05-25T13:17:49.270Z,94734.25
2023-05-25T13:20:16.856Z,94737.00
2023-05-25T13:22:45.184Z,94731.53
2023-05-25T13:25:13.667Z,94731.53
2023-05-25T13:27:46.074Z,94727.19
2023-05-25T13:30:13.862Z,94730.25
2023-05-25T13:32:41.999Z,94728.28
2023-05-25T13:35:12.481Z,94724.00
2023-05-25T13:37:39.176Z,94730.25
2023-05-25T13:40:06.422Z,94726.06
2023-05-25T13:42:33.110Z,94726.44
2023-05-25T13:44:59.769Z,94726.47
2023-05-25T13:47:26.581Z,94727.63
2023-05-25T13:49:53.356Z,94729.19
2023-05-25T13:52:20.149Z,94727.13
2023-05-25T13:54:46.812Z,94720.84
2023-05-25T13:57:13.552Z,94724.66
2023-05-25T13:59:40.263Z,94717.88
2023-05-25T14:02:07.741Z,94717.81
2023-05-25T14:04:35.646Z,94718.97
2023-05-25T14:07:02.834Z,94709.38
2023-05-25T14:09:29.602Z,94712.16
2023-05-25T14:11:56.289Z,94712.41
2023-05-25T14:14:31.536Z,94714.38
2023-05-25T14:17:00.399Z,94716.25
2023-05-25T14:19:27.409Z,94714.63
2023-05-25T14:22:08.134Z,94715.41
2023-05-25T14:24:39.760Z,94707.63
2023-05-25T14:27:09.216Z,94709.28
2023-05-25T14:29:36.174Z,94701.03
2023-05-25T14:32:03.076Z,94709.81
2023-05-25T14:34:29.925Z,94705.16
2023-05-25T14:36:56.722Z,94703.34
2023-05-25T14:39:23.503Z,94701.03
2023-05-25T14:41:50.331Z,94712.41
2023-05-25T14:44:17.122Z,94719.78
2023-05-25T14:46:43.920Z,94715.78
2023-05-25T14:49:10.708Z,94710.72
2023-05-25T14:51:38.198Z,94701.38
2023-05-25T14:54:06.410Z,94716.28
2023-05-25T14:56:33.454Z,94719.03
2023-05-25T14:59:00.389Z,94713.56
2023-05-25T15:01:29.411Z,94712.41
2023-05-25T15:03:57.143Z,94721.75
2023-05-25T15:06:24.132Z,94724.44
2023-05-25T15:08:51.195Z,94728.31
2023-05-25T15:11:18.406Z,94720.47
2023-05-25T15:13:45.465Z,94720.59
2023-05-25T15:16:16.718Z,94718.63
2023-05-25T15:18:44.178Z,94720.63
2023-05-25T15:21:10.955Z,94708.47
2023-05-25T15:23:37.620Z,94717.84
2023-05-25T15:26:04.888Z,94722.53
2023-05-25T15:28:31.886Z,94708.91
2023-05-25T15:31:02.290Z,94719.03
2023-05-25T15:33:43.504Z,94714.34
2023-05-25T15:36:14.992Z,94720.88
2023-05-25T15:38:43.350Z,94710.69
2023-05-25T15:41:11.470Z,94709.91
2023-05-25T15:43:38.218Z,94709.16
2023-05-25T15:46:04.973Z,94708.41
2023-05-25T15:48:31.756Z,94700.66
2023-05-25T15:50:58.455Z,94703.06
2023-05-25T15:53:25.167Z,94705.00
2023-05-25T15:55:51.926Z,94710.84
2023-05-25T15:58:18.728Z,94707.72
2023-05-25T16:00:45.433Z,94696.81
2023-05-25T16:03:12.331Z,94707.34
2023-05-25T16:05:39.062Z,94709.69
2023-05-25T16:08:05.740Z,94715.94
2023-05-25T16:10:32.501Z,94710.06
2023-05-25T16:12:59.197Z,94706.19
2023-05-25T16:15:26.176Z,94714.75
2023-05-25T16:17:52.904Z,94717.81
2023-05-25T16:20:19.702Z,94709.19
2023-05-25T16:22:46.427Z,94719.97
2023-05-25T16:25:13.132Z,94722.28
2023-05-25T16:27:39.842Z,94717.63
2023-05-25T16:30:07.250Z,94720.00
2023-05-25T16:32:34.087Z,94719.19
2023-05-25T16:35:01.393Z,94722.31
2023-05-25T16:37:28.100Z,94703.59
2023-05-25T16:39:54.862Z,94719.94
2023-05-25T16:42:21.563Z,94713.28
2023-05-25T16:44:48.297Z,94711.69
2023-05-25T16:47:14.953Z,94717.91
2023-05-25T16:49:41.649Z,94715.91
2023-05-25T16:52:08.354Z,94719.75
2023-05-25T16:54:35.024Z,94719.75
2023-05-25T16:57:04.766Z,94717.41
2023-05-25T16:59:31.503Z,94718.09
2023-05-25T17:01:59.202Z,94723.97
2023-05-25T17:04:25.941Z,94723.13
2023-05-25T17:06:52.692Z,94720.31
2023-05-25T17:09:19.416Z,94719.50
2023-05-25T17:11:46.112Z,94719.84
2023-05-25T17:14:12.853Z,94707.75
2023-05-25T17:16:39.642Z,94719.38
2023-05-25T17:19:06.413Z,94723.19
2023-05-25T17:21:33.143Z,94723.16
2023-05-25T17:23:59.841Z,94714.94
2023-05-25T17:26:26.880Z,94716.88
2023-05-25T17:28:53.589Z,94709.03
2023-05-25T17:31:20.400Z,94708.63
2023-05-25T17:33:47.072Z,94701.97
2023-05-25T17:36:13.785Z,94710.44
2023-05-25T17:38:41.184Z,94710.41
2023-05-25T17:41:07.870Z,94722.84
2023-05-25T17:43:34.517Z,94721.25
2023-05-25T17:46:01.308Z,94720.38
2023-05-25T17:48:28.072Z,94723.03
2023-05-25T17:50:54.770Z,94726.88
2023-05-25T17:53:21.541Z,94725.31
2023-05-25T17:55:48.280Z,94728.31
2023-05-25T17:58:14.968Z,94736.81
2023-05-25T18:00:41.776Z,94732.06
2023-05-25T18:03:08.704Z,94726.91
2023-05-25T18:05:35.695Z,94735.78
2023-05-25T18:08:02.424Z,94731.81
2023-05-25T18:10:29.077Z,94734.09
2023-05-25T18:12:55.798Z,94728.94
2023-05-25T18:15:22.521Z,94734.38
2023-05-25T18:17:49.256Z,94730.38
2023-05-25T18:20:16.131Z,94733.38
2023-05-25T18:22:43.986Z,94738.75
2023-05-25T18:25:10.816Z,94747.19
2023-05-25T18:27:37.550Z,94740.06
2023-05-25T18:30:04.902Z,94743.50
2023-05-25T18:32:31.695Z,94745.38
2023-05-25T18:34:58.398Z,94745.75
2023-05-25T18:37:25.093Z,94748.03
2023-05-25T18:39:51.962Z,94743.25
2023-05-25T18:42:18.690Z,94749.75
2023-05-25T18:44:45.388Z,94756.97
2023-05-25T18:47:12.270Z,94756.81
2023-05-25T18:49:39.025Z,94748.56
2023-05-25T18:52:08.175Z,94754.66
2023-05-25T18:54:34.943Z,94759.25
2023-05-25T18:57:03.061Z,94763.09
2023-05-25T18:59:31.566Z,94758.25
2023-05-25T19:01:58.343Z,94764.72
2023-05-25T19:04:25.224Z,94755.53
2023-05-25T19:06:51.904Z,94764.78
2023-05-25T19:09:18.620Z,94766.97
2023-05-25T19:11:45.382Z,94768.75
2023-05-25T19:14:12.140Z,94784.25
2023-05-25T19:16:38.837Z,94774.00
2023-05-25T19:19:05.564Z,94780.72
2023-05-25T19:21:33.319Z,94776.25
2023-05-25T19:24:00.017Z,94792.84
2023-05-25T19:26:27.572Z,94795.84
2023-05-25T19:28:54.343Z,94787.63
2023-05-25T19:31:22.431Z,94782.13
2023-05-25T19:33:49.198Z,94790.63
2023-05-25T19:36:16.174Z,94792.75
2023-05-25T19:38:42.878Z,94791.03
2023-05-25T19:41:09.691Z,94793.28
2023-05-25T19:43:37.433Z,94796.72
2023-05-25T19:46:04.415Z,94794.56
2023-05-25T19:48:31.249Z,94795.97
2023-05-25T19:50:57.976Z,94801.28
2023-05-25T19:53:24.710Z,94802.72
2023-05-25T19:55:51.642Z,94787.00
2023-05-25T19:58:18.324Z,94798.69
2023-05-25T20:00:45.061Z,94799.31
2023-05-25T20:03:11.892Z,94799.38
2023-05-25T20:05:39.050Z,94793.09
2023-05-25T20:08:05.964Z,94803.47
2023-05-25T20:10:38.697Z,94801.91
2023-05-25T20:13:06.610Z,94803.28
2023-05-25T20:15:33.334Z,94804.44
2023-05-25T20:18:01.666Z,94811.16
2023-05-25T20:20:28.389Z,94802.41
2023-05-25T20:22:55.187Z,94808.63
2023-05-25T20:25:21.853Z,94813.97
2023-05-25T20:27:48.554Z,94813.44
2023-05-25T20:30:17.026Z,94825.28
2023-05-25T20:32:44.053Z,94827.53
2023-05-25T20:35:10.881Z,94823.88
2023-05-25T20:37:37.661Z,94817.94
2023-05-25T20:40:06.596Z,94824.03
2023-05-25T20:42:33.335Z,94829.34
2023-05-25T20:45:00.002Z,94829.25
2023-05-25T20:47:27.045Z,94823.66
2023-05-25T20:49:53.871Z,94830.19
2023-05-25T20:52:21.240Z,94834.38
2023-05-25T20:54:48.309Z,94832.16
2023-05-25T20:57:15.715Z,94834.63
2023-05-25T20:59:42.418Z,94830.25
2023-05-25T21:02:09.148Z,94831.69
2023-05-25T21:04:35.839Z,94835.03
2023-05-25T21:07:02.532Z,94836.81
2023-05-25T21:09:29.232Z,94834.13
2023-05-25T21:11:55.910Z,94831.66
2023-05-25T21:14:22.645Z,94839.75
2023-05-25T21:16:50.131Z,94834.16
2023-05-25T21:19:17.317Z,94828.22
2023-05-25T21:21:44.127Z,94825.75
2023-05-25T21:24:11.018Z,94827.88
2023-05-25T21:26:37.732Z,94824.53
2023-05-25T21:29:04.457Z,94827.25
2023-05-25T21:31:31.438Z,94822.19
2023-05-25T21:33:59.947Z,94828.59
2023-05-25T21:36:26.992Z,94825.56
2023-05-25T21:38:53.686Z,94823.00
2023-05-25T21:41:20.371Z,94828.50
2023-05-25T21:43:47.087Z,94822.56
2023-05-25T21:46:13.800Z,94823.00
2023-05-25T21:48:40.477Z,94833.00
2023-05-25T21:51:07.231Z,94833.91
2023-05-25T21:53:33.919Z,94823.66
2023-05-25T21:56:00.610Z,94822.09
2023-05-25T21:58:27.301Z,94830.19
2023-05-25T22:00:54.100Z,94825.84
2023-05-25T22:03:20.862Z,94828.09
2023-05-25T22:05:47.611Z,94823.25
2023-05-25T22:08:14.316Z,94828.06
2023-05-25T22:10:41.143Z,94829.97
2023-05-25T22:13:07.947Z,94824.84
2023-05-25T22:15:34.910Z,94826.41
2023-05-25T22:18:01.987Z,94826.75
2023-05-25T22:20:28.773Z,94822.34
2023-05-25T22:22:55.535Z,94832.00
2023-05-25T22:25:22.306Z,94836.63
2023-05-25T22:27:49.054Z,94832.44
2023-05-25T22:30:15.847Z,94844.25
2023-05-25T22:32:42.618Z,94838.53
2023-05-25T22:35:09.485Z,94845.72
2023-05-25T22:37:36.177Z,94846.84
2023-05-25T22:40:04.076Z,94833.22
2023-05-25T22:42:30.997Z,94838.28
2023-05-25T22:44:57.868Z,94819.09
2023-05-25T22:47:24.616Z,94832.66
2023-05-25T22:49:51.429Z,94837.38
2023-05-25T22:52:18.153Z,94839.63
2023-05-25T22:54:44.890Z,94824.44
2023-05-25T22:57:11.739Z,94826.22
2023-05-25T22:59:38.419Z,94819.97
2023-05-25T23:02:05.557Z,94821.41
2023-05-25T23:04:33.851Z,94825.22
2023-05-25T23:07:00.606Z,94810.69
2023-05-25T23:09:27.405Z,94824.28
2023-05-25T23:11:54.185Z,94818.09
2023-05-25T23:14:21.049Z,94827.44
2023-05-25T23:16:50.549Z,94824.94
2023-05-25T23:19:18.087Z,94823.13
2023-05-25T23:21:44.849Z,94830.06
2023-05-25T23:24:11.619Z,94831.09
2023-05-25T23:26:38.264Z,94825.78
2023-05-25T23:29:05.052Z,94829.34
2023-05-25T23:31:31.878Z,94827.22
2023-05-25T23:33:58.658Z,94825.97
2023-05-25T23:36:28.421Z,94814.59
2023-05-25T23:38:55.343Z,94831.34
2023-05-25T23:41:22.159Z,94823.47
2023-05-25T23:43:48.861Z,94825.50
2023-05-25T23:46:16.401Z,94828.38
2023-05-25T23:48:44.265Z,94827.81
2023-05-25T23:51:11.163Z,94824.28
2023-05-25T23:53:38.969Z,94829.47
2023-05-25T23:56:05.895Z,94831.03
2023-05-25T23:58:32.596Z,94837.09
